sensor_id;sensor_type;location;lat;lon;timestamp;P1;durP1;ratioP1;P2;durP2;ratioP2
52956;SDS011;38819;42.692;23.342;2023-04-03T00:00:59;31.50;;;15.55;;
52956;SDS011;38819;42.692;23.342;2023-04-03T00:03:25;27.50;;;14.82;;
52956;SDS011;38819;42.692;23.342;2023-04-03T00:05:50;36.45;;;16.83;;
52956;SDS011;38819;42.692;23.342;2023-04-03T00:08:16;38.38;;;18.17;;
52956;SDS011;38819;42.692;23.342;2023-04-03T00:10:41;39.00;;;17.92;;
52956;SDS011;38819;42.692;23.342;2023-04-03T00:13:07;48.88;;;20.85;;
52956;SDS011;38819;42.692;23.342;2023-04-03T00:15:34;40.97;;;18.70;;
52956;SDS011;38819;42.692;23.342;2023-04-03T00:18:00;30.30;;;15.35;;
52956;SDS011;38819;42.692;23.342;2023-04-03T00:20:26;25.40;;;14.50;;
52956;SDS011;38819;42.692;23.342;2023-04-03T00:22:52;26.13;;;13.45;;
52956;SDS011;38819;42.692;23.342;2023-04-03T00:25:18;24.50;;;13.10;;
52956;SDS011;38819;42.692;23.342;2023-04-03T00:27:44;18.80;;;10.35;;
52956;SDS011;38819;42.692;23.342;2023-04-03T00:30:11;21.63;;;10.60;;
52956;SDS011;38819;42.692;23.342;2023-04-03T00:32:39;24.73;;;12.45;;
52956;SDS011;38819;42.692;23.342;2023-04-03T00:35:05;23.40;;;11.63;;
52956;SDS011;38819;42.692;23.342;2023-04-03T00:37:31;21.05;;;9.05;;
52956;SDS011;38819;42.692;23.342;2023-04-03T00:39:56;15.82;;;7.63;;
52956;SDS011;38819;42.692;23.342;2023-04-03T00:42:22;13.70;;;8.75;;
52956;SDS011;38819;42.692;23.342;2023-04-03T00:47:14;17.20;;;8.07;;
52956;SDS011;38819;42.692;23.342;2023-04-03T00:49:43;19.48;;;9.98;;
52956;SDS011;38819;42.692;23.342;2023-04-03T00:54:38;19.02;;;8.63;;
52956;SDS011;38819;42.692;23.342;2023-04-03T00:57:07;18.33;;;9.45;;
52956;SDS011;38819;42.692;23.342;2023-04-03T00:59:35;14.45;;;8.50;;
52956;SDS011;38819;42.692;23.342;2023-04-03T01:02:06;13.75;;;8.73;;
52956;SDS011;38819;42.692;23.342;2023-04-03T01:07:05;16.08;;;8.68;;
52956;SDS011;38819;42.692;23.342;2023-04-03T01:09:33;17.08;;;8.32;;
52956;SDS011;38819;42.692;23.342;2023-04-03T01:14:53;16.50;;;6.57;;
52956;SDS011;38819;42.692;23.342;2023-04-03T01:20:20;15.10;;;6.43;;
52956;SDS011;38819;42.692;23.342;2023-04-03T01:23:02;17.83;;;8.38;;
52956;SDS011;38819;42.692;23.342;2023-04-03T01:25:35;18.25;;;9.15;;
52956;SDS011;38819;42.692;23.342;2023-04-03T01:28:02;12.45;;;7.28;;
52956;SDS011;38819;42.692;23.342;2023-04-03T01:30:30;11.27;;;6.73;;
52956;SDS011;38819;42.692;23.342;2023-04-03T01:32:58;11.68;;;7.18;;
52956;SDS011;38819;42.692;23.342;2023-04-03T01:35:23;18.83;;;8.55;;
52956;SDS011;38819;42.692;23.342;2023-04-03T01:37:49;16.15;;;7.00;;
52956;SDS011;38819;42.692;23.342;2023-04-03T01:40:15;11.57;;;7.10;;
52956;SDS011;38819;42.692;23.342;2023-04-03T01:42:40;7.85;;;5.57;;
52956;SDS011;38819;42.692;23.342;2023-04-03T01:45:06;10.77;;;5.85;;
52956;SDS011;38819;42.692;23.342;2023-04-03T01:47:32;11.02;;;5.18;;
52956;SDS011;38819;42.692;23.342;2023-04-03T01:49:57;10.30;;;5.15;;
52956;SDS011;38819;42.692;23.342;2023-04-03T01:52:23;5.50;;;3.70;;
52956;SDS011;38819;42.692;23.342;2023-04-03T01:54:48;7.45;;;3.90;;
52956;SDS011;38819;42.692;23.342;2023-04-03T01:57:14;7.30;;;4.13;;
52956;SDS011;38819;42.692;23.342;2023-04-03T01:59:40;9.20;;;5.00;;
52956;SDS011;38819;42.692;23.342;2023-04-03T02:02:06;9.02;;;5.38;;
52956;SDS011;38819;42.692;23.342;2023-04-03T02:04:31;9.25;;;4.45;;
52956;SDS011;38819;42.692;23.342;2023-04-03T02:06:57;13.27;;;4.53;;
52956;SDS011;38819;42.692;23.342;2023-04-03T02:09:22;10.75;;;4.00;;
52956;SDS011;38819;42.692;23.342;2023-04-03T02:11:48;7.05;;;4.05;;
52956;SDS011;38819;42.692;23.342;2023-04-03T02:14:13;6.25;;;3.65;;
52956;SDS011;38819;42.692;23.342;2023-04-03T02:16:38;6.35;;;3.60;;
52956;SDS011;38819;42.692;23.342;2023-04-03T02:19:05;7.50;;;3.78;;
52956;SDS011;38819;42.692;23.342;2023-04-03T02:21:31;6.72;;;4.30;;
52956;SDS011;38819;42.692;23.342;2023-04-03T02:23:57;7.05;;;3.53;;
52956;SDS011;38819;42.692;23.342;2023-04-03T02:26:23;5.72;;;4.03;;
52956;SDS011;38819;42.692;23.342;2023-04-03T02:28:48;5.88;;;3.97;;
52956;SDS011;38819;42.692;23.342;2023-04-03T02:31:14;7.15;;;3.65;;
52956;SDS011;38819;42.692;23.342;2023-04-03T02:33:39;8.10;;;4.45;;
52956;SDS011;38819;42.692;23.342;2023-04-03T02:36:06;9.23;;;4.20;;
52956;SDS011;38819;42.692;23.342;2023-04-03T02:38:33;7.30;;;4.47;;
52956;SDS011;38819;42.692;23.342;2023-04-03T02:41:06;8.25;;;4.15;;
52956;SDS011;38819;42.692;23.342;2023-04-03T02:43:33;5.78;;;4.10;;
52956;SDS011;38819;42.692;23.342;2023-04-03T02:45:59;6.95;;;4.55;;
52956;SDS011;38819;42.692;23.342;2023-04-03T02:48:24;11.25;;;4.70;;
52956;SDS011;38819;42.692;23.342;2023-04-03T02:50:50;14.05;;;4.88;;
52956;SDS011;38819;42.692;23.342;2023-04-03T02:53:16;7.32;;;4.60;;
52956;SDS011;38819;42.692;23.342;2023-04-03T02:55:42;8.90;;;3.70;;
52956;SDS011;38819;42.692;23.342;2023-04-03T02:58:07;9.23;;;4.38;;
52956;SDS011;38819;42.692;23.342;2023-04-03T03:00:33;8.15;;;4.63;;
52956;SDS011;38819;42.692;23.342;2023-04-03T03:02:58;9.27;;;4.45;;
52956;SDS011;38819;42.692;23.342;2023-04-03T03:05:25;11.02;;;5.03;;
52956;SDS011;38819;42.692;23.342;2023-04-03T03:07:51;10.23;;;5.17;;
52956;SDS011;38819;42.692;23.342;2023-04-03T03:10:17;10.93;;;5.07;;
52956;SDS011;38819;42.692;23.342;2023-04-03T03:12:43;12.45;;;5.68;;
52956;SDS011;38819;42.692;23.342;2023-04-03T03:15:08;10.10;;;6.03;;
52956;SDS011;38819;42.692;23.342;2023-04-03T03:17:34;17.13;;;6.85;;
52956;SDS011;38819;42.692;23.342;2023-04-03T03:20:01;12.88;;;7.20;;
52956;SDS011;38819;42.692;23.342;2023-04-03T03:22:27;16.08;;;7.30;;
52956;SDS011;38819;42.692;23.342;2023-04-03T03:24:52;15.68;;;7.65;;
52956;SDS011;38819;42.692;23.342;2023-04-03T03:27:18;10.82;;;7.40;;
52956;SDS011;38819;42.692;23.342;2023-04-03T03:29:43;14.00;;;7.30;;
52956;SDS011;38819;42.692;23.342;2023-04-03T03:32:08;11.60;;;6.65;;
52956;SDS011;38819;42.692;23.342;2023-04-03T03:34:34;12.38;;;7.13;;
52956;SDS011;38819;42.692;23.342;2023-04-03T03:36:59;15.05;;;6.35;;
52956;SDS011;38819;42.692;23.342;2023-04-03T03:39:25;17.38;;;7.82;;
52956;SDS011;38819;42.692;23.342;2023-04-03T03:41:51;19.70;;;8.13;;
52956;SDS011;38819;42.692;23.342;2023-04-03T03:44:18;33.30;;;9.90;;
52956;SDS011;38819;42.692;23.342;2023-04-03T03:46:44;16.88;;;8.68;;
52956;SDS011;38819;42.692;23.342;2023-04-03T03:49:10;20.95;;;9.32;;
52956;SDS011;38819;42.692;23.342;2023-04-03T03:51:36;20.45;;;9.80;;
52956;SDS011;38819;42.692;23.342;2023-04-03T03:54:02;19.20;;;9.15;;
52956;SDS011;38819;42.692;23.342;2023-04-03T03:56:28;22.35;;;9.35;;
52956;SDS011;38819;42.692;23.342;2023-04-03T03:58:54;21.20;;;8.77;;
52956;SDS011;38819;42.692;23.342;2023-04-03T04:01:21;25.13;;;10.75;;
52956;SDS011;38819;42.692;23.342;2023-04-03T04:03:47;22.13;;;10.40;;
52956;SDS011;38819;42.692;23.342;2023-04-03T04:06:13;21.35;;;9.45;;
52956;SDS011;38819;42.692;23.342;2023-04-03T04:08:38;20.45;;;8.95;;
52956;SDS011;38819;42.692;23.342;2023-04-03T04:11:04;22.85;;;9.30;;
52956;SDS011;38819;42.692;23.342;2023-04-03T04:13:29;26.95;;;8.80;;
52956;SDS011;38819;42.692;23.342;2023-04-03T04:15:55;23.85;;;9.52;;
52956;SDS011;38819;42.692;23.342;2023-04-03T04:18:20;19.88;;;9.48;;
52956;SDS011;38819;42.692;23.342;2023-04-03T04:20:47;20.27;;;9.23;;
52956;SDS011;38819;42.692;23.342;2023-04-03T04:23:13;23.15;;;9.77;;
52956;SDS011;38819;42.692;23.342;2023-04-03T04:25:38;23.70;;;8.60;;
52956;SDS011;38819;42.692;23.342;2023-04-03T04:28:06;19.77;;;8.55;;
52956;SDS011;38819;42.692;23.342;2023-04-03T04:30:31;25.67;;;8.48;;
52956;SDS011;38819;42.692;23.342;2023-04-03T04:32:57;32.05;;;9.05;;
52956;SDS011;38819;42.692;23.342;2023-04-03T04:35:22;20.10;;;9.05;;
52956;SDS011;38819;42.692;23.342;2023-04-03T04:37:48;31.70;;;9.05;;
52956;SDS011;38819;42.692;23.342;2023-04-03T04:40:13;20.42;;;9.40;;
52956;SDS011;38819;42.692;23.342;2023-04-03T04:42:38;16.00;;;9.07;;
52956;SDS011;38819;42.692;23.342;2023-04-03T04:45:04;26.45;;;10.73;;
52956;SDS011;38819;42.692;23.342;2023-04-03T04:47:30;17.73;;;9.35;;
52956;SDS011;38819;42.692;23.342;2023-04-03T04:49:55;25.33;;;10.00;;
52956;SDS011;38819;42.692;23.342;2023-04-03T04:52:21;25.55;;;10.32;;
52956;SDS011;38819;42.692;23.342;2023-04-03T04:54:46;30.95;;;10.10;;
52956;SDS011;38819;42.692;23.342;2023-04-03T04:57:12;33.08;;;10.45;;
52956;SDS011;38819;42.692;23.342;2023-04-03T04:59:37;33.30;;;11.18;;
52956;SDS011;38819;42.692;23.342;2023-04-03T05:02:03;27.77;;;10.63;;
52956;SDS011;38819;42.692;23.342;2023-04-03T05:04:28;29.13;;;11.63;;
52956;SDS011;38819;42.692;23.342;2023-04-03T05:06:53;26.73;;;11.70;;
52956;SDS011;38819;42.692;23.342;2023-04-03T05:09:19;25.85;;;11.88;;
52956;SDS011;38819;42.692;23.342;2023-04-03T05:11:45;33.50;;;12.65;;
52956;SDS011;38819;42.692;23.342;2023-04-03T05:14:11;33.25;;;13.57;;
52956;SDS011;38819;42.692;23.342;2023-04-03T05:16:36;43.25;;;13.25;;
52956;SDS011;38819;42.692;23.342;2023-04-03T05:19:02;34.75;;;13.02;;
52956;SDS011;38819;42.692;23.342;2023-04-03T05:21:28;41.83;;;12.20;;
52956;SDS011;38819;42.692;23.342;2023-04-03T05:23:57;41.92;;;11.93;;
52956;SDS011;38819;42.692;23.342;2023-04-03T05:26:24;31.50;;;13.00;;
52956;SDS011;38819;42.692;23.342;2023-04-03T05:28:50;35.83;;;12.43;;
52956;SDS011;38819;42.692;23.342;2023-04-03T05:31:15;30.20;;;11.15;;
52956;SDS011;38819;42.692;23.342;2023-04-03T05:33:41;32.28;;;11.45;;
52956;SDS011;38819;42.692;23.342;2023-04-03T05:36:07;34.83;;;12.27;;
52956;SDS011;38819;42.692;23.342;2023-04-03T05:38:33;26.50;;;11.02;;
52956;SDS011;38819;42.692;23.342;2023-04-03T05:40:58;36.95;;;12.65;;
52956;SDS011;38819;42.692;23.342;2023-04-03T05:43:23;28.95;;;12.75;;
52956;SDS011;38819;42.692;23.342;2023-04-03T05:45:50;35.47;;;14.13;;
52956;SDS011;38819;42.692;23.342;2023-04-03T05:48:16;34.70;;;13.38;;
52956;SDS011;38819;42.692;23.342;2023-04-03T05:50:41;26.20;;;13.48;;
52956;SDS011;38819;42.692;23.342;2023-04-03T05:53:07;33.72;;;10.82;;
52956;SDS011;38819;42.692;23.342;2023-04-03T05:55:39;19.42;;;9.77;;
52956;SDS011;38819;42.692;23.342;2023-04-03T05:58:05;21.52;;;8.93;;
52956;SDS011;38819;42.692;23.342;2023-04-03T06:00:30;25.70;;;8.95;;
52956;SDS011;38819;42.692;23.342;2023-04-03T06:02:56;25.30;;;10.05;;
52956;SDS011;38819;42.692;23.342;2023-04-03T06:05:21;19.90;;;8.23;;
52956;SDS011;38819;42.692;23.342;2023-04-03T06:07:47;20.25;;;8.95;;
52956;SDS011;38819;42.692;23.342;2023-04-03T06:10:14;14.32;;;7.57;;
52956;SDS011;38819;42.692;23.342;2023-04-03T06:12:39;20.20;;;11.07;;
52956;SDS011;38819;42.692;23.342;2023-04-03T06:15:05;16.00;;;9.32;;
52956;SDS011;38819;42.692;23.342;2023-04-03T06:17:33;25.45;;;11.27;;
52956;SDS011;38819;42.692;23.342;2023-04-03T06:19:58;25.27;;;13.98;;
52956;SDS011;38819;42.692;23.342;2023-04-03T06:22:23;30.92;;;15.80;;
52956;SDS011;38819;42.692;23.342;2023-04-03T06:24:50;35.13;;;16.02;;
52956;SDS011;38819;42.692;23.342;2023-04-03T06:27:16;29.77;;;17.40;;
52956;SDS011;38819;42.692;23.342;2023-04-03T06:29:41;36.83;;;17.90;;
52956;SDS011;38819;42.692;23.342;2023-04-03T06:32:08;34.47;;;17.33;;
52956;SDS011;38819;42.692;23.342;2023-04-03T06:34:33;27.10;;;16.02;;
52956;SDS011;38819;42.692;23.342;2023-04-03T06:36:59;40.78;;;18.13;;
52956;SDS011;38819;42.692;23.342;2023-04-03T06:39:24;40.80;;;17.65;;
52956;SDS011;38819;42.692;23.342;2023-04-03T06:41:50;34.20;;;17.00;;
52956;SDS011;38819;42.692;23.342;2023-04-03T06:44:16;45.70;;;17.85;;
52956;SDS011;38819;42.692;23.342;2023-04-03T06:46:42;38.22;;;16.73;;
52956;SDS011;38819;42.692;23.342;2023-04-03T06:49:09;27.60;;;16.07;;
52956;SDS011;38819;42.692;23.342;2023-04-03T06:51:34;30.30;;;16.83;;
52956;SDS011;38819;42.692;23.342;2023-04-03T06:54:01;32.40;;;15.10;;
52956;SDS011;38819;42.692;23.342;2023-04-03T06:56:28;29.13;;;14.60;;
52956;SDS011;38819;42.692;23.342;2023-04-03T06:58:54;31.63;;;15.05;;
52956;SDS011;38819;42.692;23.342;2023-04-03T07:01:22;33.72;;;15.30;;
52956;SDS011;38819;42.692;23.342;2023-04-03T07:03:47;32.22;;;15.57;;
52956;SDS011;38819;42.692;23.342;2023-04-03T07:06:14;30.02;;;15.07;;
52956;SDS011;38819;42.692;23.342;2023-04-03T07:08:40;34.28;;;13.18;;
52956;SDS011;38819;42.692;23.342;2023-04-03T07:11:07;27.20;;;13.50;;
52956;SDS011;38819;42.692;23.342;2023-04-03T07:13:33;31.17;;;12.52;;
52956;SDS011;38819;42.692;23.342;2023-04-03T07:15:59;20.00;;;11.15;;
52956;SDS011;38819;42.692;23.342;2023-04-03T07:18:24;25.30;;;12.27;;
52956;SDS011;38819;42.692;23.342;2023-04-03T07:20:50;28.80;;;11.43;;
52956;SDS011;38819;42.692;23.342;2023-04-03T07:23:16;22.05;;;12.38;;
52956;SDS011;38819;42.692;23.342;2023-04-03T07:25:45;24.83;;;11.73;;
52956;SDS011;38819;42.692;23.342;2023-04-03T07:28:13;19.65;;;11.30;;
52956;SDS011;38819;42.692;23.342;2023-04-03T07:30:46;24.48;;;13.05;;
52956;SDS011;38819;42.692;23.342;2023-04-03T07:33:17;24.90;;;12.45;;
52956;SDS011;38819;42.692;23.342;2023-04-03T07:35:43;33.60;;;14.60;;
52956;SDS011;38819;42.692;23.342;2023-04-03T07:38:10;38.20;;;16.13;;
52956;SDS011;38819;42.692;23.342;2023-04-03T07:40:36;37.03;;;15.85;;
52956;SDS011;38819;42.692;23.342;2023-04-03T07:43:02;37.63;;;14.20;;
52956;SDS011;38819;42.692;23.342;2023-04-03T07:45:28;26.73;;;14.50;;
52956;SDS011;38819;42.692;23.342;2023-04-03T07:47:54;33.42;;;15.32;;
52956;SDS011;38819;42.692;23.342;2023-04-03T07:50:21;36.15;;;14.95;;
52956;SDS011;38819;42.692;23.342;2023-04-03T07:52:46;27.80;;;13.73;;
52956;SDS011;38819;42.692;23.342;2023-04-03T07:55:12;44.03;;;16.42;;
52956;SDS011;38819;42.692;23.342;2023-04-03T07:57:38;31.35;;;13.82;;
52956;SDS011;38819;42.692;23.342;2023-04-03T08:00:04;22.20;;;12.75;;
52956;SDS011;38819;42.692;23.342;2023-04-03T08:02:30;29.10;;;12.95;;
52956;SDS011;38819;42.692;23.342;2023-04-03T08:04:57;24.50;;;13.55;;
52956;SDS011;38819;42.692;23.342;2023-04-03T08:07:23;27.60;;;13.55;;
52956;SDS011;38819;42.692;23.342;2023-04-03T08:09:48;31.17;;;15.88;;
52956;SDS011;38819;42.692;23.342;2023-04-03T08:12:14;36.42;;;13.30;;
52956;SDS011;38819;42.692;23.342;2023-04-03T08:14:40;29.40;;;14.45;;
52956;SDS011;38819;42.692;23.342;2023-04-03T08:17:05;25.20;;;12.40;;
52956;SDS011;38819;42.692;23.342;2023-04-03T08:19:34;21.58;;;13.40;;
52956;SDS011;38819;42.692;23.342;2023-04-03T08:22:00;28.90;;;13.70;;
52956;SDS011;38819;42.692;23.342;2023-04-03T08:24:28;34.75;;;13.77;;
52956;SDS011;38819;42.692;23.342;2023-04-03T08:26:53;34.75;;;13.50;;
52956;SDS011;38819;42.692;23.342;2023-04-03T08:29:19;24.70;;;12.38;;
52956;SDS011;38819;42.692;23.342;2023-04-03T08:31:46;29.88;;;13.20;;
52956;SDS011;38819;42.692;23.342;2023-04-03T08:34:12;29.92;;;13.68;;
52956;SDS011;38819;42.692;23.342;2023-04-03T08:36:39;31.73;;;15.40;;
52956;SDS011;38819;42.692;23.342;2023-04-03T08:39:05;28.17;;;15.45;;
52956;SDS011;38819;42.692;23.342;2023-04-03T08:47:11;37.25;;;15.40;;
52956;SDS011;38819;42.692;23.342;2023-04-03T08:49:47;25.83;;;14.77;;
52956;SDS011;38819;42.692;23.342;2023-04-03T08:52:22;30.40;;;14.43;;
52956;SDS011;38819;42.692;23.342;2023-04-03T08:54:59;27.88;;;14.00;;
52956;SDS011;38819;42.692;23.342;2023-04-03T08:57:38;23.17;;;13.55;;
52956;SDS011;38819;42.692;23.342;2023-04-03T09:00:15;30.70;;;15.82;;
52956;SDS011;38819;42.692;23.342;2023-04-03T09:02:52;29.48;;;13.52;;
52956;SDS011;38819;42.692;23.342;2023-04-03T09:05:20;32.88;;;13.80;;
52956;SDS011;38819;42.692;23.342;2023-04-03T09:07:52;29.60;;;12.88;;
52956;SDS011;38819;42.692;23.342;2023-04-03T09:10:23;27.38;;;13.60;;
52956;SDS011;38819;42.692;23.342;2023-04-03T09:12:59;28.58;;;12.13;;
52956;SDS011;38819;42.692;23.342;2023-04-03T09:15:30;21.80;;;12.48;;
52956;SDS011;38819;42.692;23.342;2023-04-03T09:17:58;22.63;;;12.13;;
52956;SDS011;38819;42.692;23.342;2023-04-03T09:20:31;24.83;;;12.50;;
52956;SDS011;38819;42.692;23.342;2023-04-03T09:26:34;27.92;;;12.38;;
52956;SDS011;38819;42.692;23.342;2023-04-03T09:29:20;34.40;;;13.90;;
52956;SDS011;38819;42.692;23.342;2023-04-03T09:31:49;29.55;;;12.88;;
52956;SDS011;38819;42.692;23.342;2023-04-03T09:34:22;19.58;;;12.95;;
52956;SDS011;38819;42.692;23.342;2023-04-03T09:36:55;29.15;;;13.93;;
52956;SDS011;38819;42.692;23.342;2023-04-03T09:39:30;28.52;;;13.13;;
52956;SDS011;38819;42.692;23.342;2023-04-03T09:41:58;35.50;;;14.05;;
52956;SDS011;38819;42.692;23.342;2023-04-03T09:44:35;34.92;;;14.43;;
52956;SDS011;38819;42.692;23.342;2023-04-03T09:52:39;32.28;;;15.25;;
52956;SDS011;38819;42.692;23.342;2023-04-03T09:57:42;23.65;;;14.35;;
52956;SDS011;38819;42.692;23.342;2023-04-03T10:00:28;26.83;;;15.15;;
52956;SDS011;38819;42.692;23.342;2023-04-03T10:02:58;33.63;;;15.55;;
52956;SDS011;38819;42.692;23.342;2023-04-03T10:05:37;20.98;;;12.73;;
52956;SDS011;38819;42.692;23.342;2023-04-03T10:08:08;28.05;;;13.23;;
52956;SDS011;38819;42.692;23.342;2023-04-03T10:11:05;25.60;;;12.18;;
52956;SDS011;38819;42.692;23.342;2023-04-03T10:13:34;32.17;;;11.85;;
52956;SDS011;38819;42.692;23.342;2023-04-03T10:16:06;23.65;;;11.98;;
52956;SDS011;38819;42.692;23.342;2023-04-03T10:18:44;19.25;;;10.57;;
52956;SDS011;38819;42.692;23.342;2023-04-03T10:27:17;17.13;;;10.23;;
52956;SDS011;38819;42.692;23.342;2023-04-03T10:35:56;27.70;;;10.93;;
52956;SDS011;38819;42.692;23.342;2023-04-03T10:46:59;30.00;;;8.57;;
52956;SDS011;38819;42.692;23.342;2023-04-03T10:49:42;20.35;;;9.13;;
52956;SDS011;38819;42.692;23.342;2023-04-03T10:52:31;16.92;;;8.18;;
52956;SDS011;38819;42.692;23.342;2023-04-03T10:57:39;11.70;;;6.72;;
52956;SDS011;38819;42.692;23.342;2023-04-03T11:00:07;17.80;;;7.88;;
52956;SDS011;38819;42.692;23.342;2023-04-03T11:05:26;14.40;;;6.25;;
52956;SDS011;38819;42.692;23.342;2023-04-03T11:08:09;21.35;;;6.45;;
52956;SDS011;38819;42.692;23.342;2023-04-03T11:10:42;14.82;;;6.63;;
52956;SDS011;38819;42.692;23.342;2023-04-03T11:13:14;17.17;;;6.25;;
52956;SDS011;38819;42.692;23.342;2023-04-03T11:15:40;12.50;;;4.22;;
52956;SDS011;38819;42.692;23.342;2023-04-03T11:18:12;5.75;;;3.47;;
52956;SDS011;38819;42.692;23.342;2023-04-03T11:20:53;4.85;;;3.45;;
52956;SDS011;38819;42.692;23.342;2023-04-03T11:23:32;12.68;;;3.88;;
52956;SDS011;38819;42.692;23.342;2023-04-03T11:26:10;7.20;;;3.63;;
52956;SDS011;38819;42.692;23.342;2023-04-03T11:38:47;7.22;;;2.92;;
52956;SDS011;38819;42.692;23.342;2023-04-03T11:41:17;5.03;;;3.33;;
52956;SDS011;38819;42.692;23.342;2023-04-03T11:44:03;6.13;;;3.28;;
52956;SDS011;38819;42.692;23.342;2023-04-03T12:16:06;3.65;;;3.03;;
52956;SDS011;38819;42.692;23.342;2023-04-03T12:21:20;6.60;;;3.55;;
52956;SDS011;38819;42.692;23.342;2023-04-03T12:27:01;12.07;;;3.25;;
52956;SDS011;38819;42.692;23.342;2023-04-03T12:30:27;5.53;;;3.35;;
52956;SDS011;38819;42.692;23.342;2023-04-03T12:38:41;5.63;;;3.03;;
52956;SDS011;38819;42.692;23.342;2023-04-03T12:41:30;5.80;;;3.25;;
52956;SDS011;38819;42.692;23.342;2023-04-03T12:46:39;6.22;;;3.42;;
52956;SDS011;38819;42.692;23.342;2023-04-03T12:49:23;5.47;;;3.80;;
52956;SDS011;38819;42.692;23.342;2023-04-03T12:51:51;5.22;;;3.20;;
52956;SDS011;38819;42.692;23.342;2023-04-03T12:54:50;7.55;;;3.92;;
52956;SDS011;38819;42.692;23.342;2023-04-03T12:59:46;7.22;;;4.45;;
52956;SDS011;38819;42.692;23.342;2023-04-03T13:02:26;7.25;;;4.88;;
52956;SDS011;38819;42.692;23.342;2023-04-03T13:04:52;10.95;;;5.00;;
52956;SDS011;38819;42.692;23.342;2023-04-03T13:15:17;14.88;;;7.45;;
52956;SDS011;38819;42.692;23.342;2023-04-03T13:17:45;14.30;;;7.45;;
52956;SDS011;38819;42.692;23.342;2023-04-03T13:22:50;8.98;;;6.57;;
52956;SDS011;38819;42.692;23.342;2023-04-03T13:25:34;12.13;;;7.88;;
52956;SDS011;38819;42.692;23.342;2023-04-03T13:28:03;10.25;;;7.35;;
52956;SDS011;38819;42.692;23.342;2023-04-03T13:30:31;12.98;;;7.50;;
52956;SDS011;38819;42.692;23.342;2023-04-03T13:33:01;14.80;;;8.55;;
52956;SDS011;38819;42.692;23.342;2023-04-03T13:35:36;18.45;;;10.57;;
52956;SDS011;38819;42.692;23.342;2023-04-03T13:40:54;13.43;;;8.75;;
52956;SDS011;38819;42.692;23.342;2023-04-03T13:43:25;12.20;;;7.13;;
52956;SDS011;38819;42.692;23.342;2023-04-03T13:45:54;9.35;;;6.20;;
52956;SDS011;38819;42.692;23.342;2023-04-03T13:48:34;7.05;;;5.68;;
52956;SDS011;38819;42.692;23.342;2023-04-03T13:51:03;9.95;;;5.88;;
52956;SDS011;38819;42.692;23.342;2023-04-03T13:53:33;7.75;;;5.53;;
52956;SDS011;38819;42.692;23.342;2023-04-03T13:56:08;12.80;;;6.05;;
52956;SDS011;38819;42.692;23.342;2023-04-03T13:58:51;12.30;;;5.72;;
52956;SDS011;38819;42.692;23.342;2023-04-03T14:01:23;8.40;;;6.07;;
52956;SDS011;38819;42.692;23.342;2023-04-03T14:03:57;8.23;;;5.32;;
52956;SDS011;38819;42.692;23.342;2023-04-03T14:06:25;10.70;;;6.80;;
52956;SDS011;38819;42.692;23.342;2023-04-03T14:08:51;8.32;;;7.38;;
52956;SDS011;38819;42.692;23.342;2023-04-03T14:11:20;12.02;;;7.70;;
52956;SDS011;38819;42.692;23.342;2023-04-03T14:13:49;10.45;;;7.32;;
52956;SDS011;38819;42.692;23.342;2023-04-03T14:16:20;8.93;;;6.40;;
52956;SDS011;38819;42.692;23.342;2023-04-03T14:18:48;12.90;;;6.38;;
52956;SDS011;38819;42.692;23.342;2023-04-03T14:21:16;10.63;;;5.53;;
52956;SDS011;38819;42.692;23.342;2023-04-03T14:23:44;8.75;;;6.43;;
52956;SDS011;38819;42.692;23.342;2023-04-03T14:26:14;10.75;;;6.22;;
52956;SDS011;38819;42.692;23.342;2023-04-03T14:28:46;7.50;;;5.20;;
52956;SDS011;38819;42.692;23.342;2023-04-03T14:33:39;6.80;;;5.32;;
52956;SDS011;38819;42.692;23.342;2023-04-03T14:36:10;7.10;;;5.03;;
52956;SDS011;38819;42.692;23.342;2023-04-03T14:38:39;6.88;;;4.97;;
52956;SDS011;38819;42.692;23.342;2023-04-03T14:41:05;6.90;;;5.28;;
52956;SDS011;38819;42.692;23.342;2023-04-03T14:43:30;7.88;;;5.50;;
52956;SDS011;38819;42.692;23.342;2023-04-03T14:45:56;8.68;;;6.38;;
52956;SDS011;38819;42.692;23.342;2023-04-03T14:48:22;17.45;;;6.28;;
52956;SDS011;38819;42.692;23.342;2023-04-03T14:50:50;8.05;;;4.65;;
52956;SDS011;38819;42.692;23.342;2023-04-03T14:53:17;4.63;;;4.22;;
52956;SDS011;38819;42.692;23.342;2023-04-03T14:55:47;7.45;;;5.25;;
52956;SDS011;38819;42.692;23.342;2023-04-03T14:58:14;10.48;;;6.70;;
52956;SDS011;38819;42.692;23.342;2023-04-03T15:00:41;10.70;;;5.43;;
52956;SDS011;38819;42.692;23.342;2023-04-03T15:03:15;11.77;;;6.82;;
52956;SDS011;38819;42.692;23.342;2023-04-03T15:05:45;8.05;;;5.78;;
52956;SDS011;38819;42.692;23.342;2023-04-03T15:08:22;12.15;;;6.95;;
52956;SDS011;38819;42.692;23.342;2023-04-03T15:10:49;9.40;;;6.95;;
52956;SDS011;38819;42.692;23.342;2023-04-03T15:13:18;6.78;;;4.85;;
52956;SDS011;38819;42.692;23.342;2023-04-03T15:15:44;9.02;;;4.90;;
52956;SDS011;38819;42.692;23.342;2023-04-03T15:18:15;6.13;;;4.22;;
52956;SDS011;38819;42.692;23.342;2023-04-03T15:20:47;6.85;;;4.30;;
52956;SDS011;38819;42.692;23.342;2023-04-03T15:23:13;5.05;;;2.90;;
52956;SDS011;38819;42.692;23.342;2023-04-03T15:25:42;4.30;;;3.70;;
52956;SDS011;38819;42.692;23.342;2023-04-03T15:28:13;5.00;;;3.40;;
52956;SDS011;38819;42.692;23.342;2023-04-03T15:31:01;6.25;;;3.38;;
52956;SDS011;38819;42.692;23.342;2023-04-03T15:33:27;7.25;;;3.13;;
52956;SDS011;38819;42.692;23.342;2023-04-03T15:35:53;6.63;;;3.63;;
52956;SDS011;38819;42.692;23.342;2023-04-03T15:38:19;5.00;;;3.72;;
52956;SDS011;38819;42.692;23.342;2023-04-03T15:40:44;4.65;;;3.33;;
52956;SDS011;38819;42.692;23.342;2023-04-03T15:43:12;5.35;;;3.65;;
52956;SDS011;38819;42.692;23.342;2023-04-03T15:45:37;4.18;;;3.22;;
52956;SDS011;38819;42.692;23.342;2023-04-03T15:48:04;8.27;;;3.65;;
52956;SDS011;38819;42.692;23.342;2023-04-03T15:52:57;5.20;;;3.83;;
52956;SDS011;38819;42.692;23.342;2023-04-03T15:55:26;4.75;;;3.63;;
52956;SDS011;38819;42.692;23.342;2023-04-03T15:57:56;6.93;;;4.35;;
52956;SDS011;38819;42.692;23.342;2023-04-03T16:00:21;5.90;;;4.63;;
52956;SDS011;38819;42.692;23.342;2023-04-03T16:02:48;4.57;;;4.18;;
52956;SDS011;38819;42.692;23.342;2023-04-03T16:05:17;7.05;;;4.28;;
52956;SDS011;38819;42.692;23.342;2023-04-03T16:07:43;6.75;;;5.22;;
52956;SDS011;38819;42.692;23.342;2023-04-03T16:10:11;4.90;;;4.47;;
52956;SDS011;38819;42.692;23.342;2023-04-03T16:12:37;6.13;;;4.68;;
52956;SDS011;38819;42.692;23.342;2023-04-03T16:15:03;8.80;;;5.68;;
52956;SDS011;38819;42.692;23.342;2023-04-03T16:17:29;6.47;;;5.25;;
52956;SDS011;38819;42.692;23.342;2023-04-03T16:19:57;6.95;;;5.75;;
52956;SDS011;38819;42.692;23.342;2023-04-03T16:22:23;10.60;;;6.57;;
52956;SDS011;38819;42.692;23.342;2023-04-03T16:24:51;10.10;;;7.03;;
52956;SDS011;38819;42.692;23.342;2023-04-03T16:27:16;8.68;;;6.50;;
52956;SDS011;38819;42.692;23.342;2023-04-03T16:29:42;9.38;;;7.28;;
52956;SDS011;38819;42.692;23.342;2023-04-03T16:32:08;8.57;;;6.43;;
52956;SDS011;38819;42.692;23.342;2023-04-03T16:34:33;9.43;;;6.45;;
52956;SDS011;38819;42.692;23.342;2023-04-03T16:36:59;7.28;;;6.30;;
52956;SDS011;38819;42.692;23.342;2023-04-03T16:39:25;9.48;;;5.95;;